sensor_id;sensor_type;location;lat;lon;timestamp;temperature;humidity
55785;DHT22;41709;52.536;5.688;2022-12-18T00:01:43;-1.80;85.50
55785;DHT22;41709;52.536;5.688;2022-12-18T00:04:25;-1.80;85.50
55785;DHT22;41709;52.536;5.688;2022-12-18T00:06:51;-1.80;85.30
55785;DHT22;41709;52.536;5.688;2022-12-18T00:09:17;-1.80;85.30
55785;DHT22;41709;52.536;5.688;2022-12-18T00:11:43;-1.80;85.30
55785;DHT22;41709;52.536;5.688;2022-12-18T00:14:11;-1.80;85.20
55785;DHT22;41709;52.536;5.688;2022-12-18T00:16:38;-1.80;85.00
55785;DHT22;41709;52.536;5.688;2022-12-18T00:19:04;-1.90;84.80
55785;DHT22;41709;52.536;5.688;2022-12-18T00:21:31;-1.90;84.80
55785;DHT22;41709;52.536;5.688;2022-12-18T00:23:58;-1.90;84.70
55785;DHT22;41709;52.536;5.688;2022-12-18T00:26:27;-1.90;84.90
55785;DHT22;41709;52.536;5.688;2022-12-18T00:28:53;-1.90;84.90
55785;DHT22;41709;52.536;5.688;2022-12-18T00:31:21;-1.90;85.00
55785;DHT22;41709;52.536;5.688;2022-12-18T00:33:50;-2.00;84.90
55785;DHT22;41709;52.536;5.688;2022-12-18T00:36:20;-2.00;85.70
55785;DHT22;41709;52.536;5.688;2022-12-18T00:38:47;-2.00;85.00
55785;DHT22;41709;52.536;5.688;2022-12-18T00:41:15;-1.90;85.10
55785;DHT22;41709;52.536;5.688;2022-12-18T00:44:01;-2.00;85.10
55785;DHT22;41709;52.536;5.688;2022-12-18T00:46:30;-2.00;85.10
55785;DHT22;41709;52.536;5.688;2022-12-18T00:48:55;-2.00;85.10
55785;DHT22;41709;52.536;5.688;2022-12-18T00:51:21;-2.00;85.00
55785;DHT22;41709;52.536;5.688;2022-12-18T00:53:47;-2.00;85.00
55785;DHT22;41709;52.536;5.688;2022-12-18T00:56:13;-2.00;84.90
55785;DHT22;41709;52.536;5.688;2022-12-18T00:58:39;-2.00;84.80
55785;DHT22;41709;52.536;5.688;2022-12-18T01:01:05;-2.00;84.70
55785;DHT22;41709;52.536;5.688;2022-12-18T01:03:31;-2.10;84.60
55785;DHT22;41709;52.536;5.688;2022-12-18T01:05:57;-2.10;84.50
55785;DHT22;41709;52.536;5.688;2022-12-18T01:08:22;-2.10;84.40
55785;DHT22;41709;52.536;5.688;2022-12-18T01:10:48;-2.10;84.20
55785;DHT22;41709;52.536;5.688;2022-12-18T01:13:14;-2.20;84.00
55785;DHT22;41709;52.536;5.688;2022-12-18T01:15:47;-2.20;84.00
55785;DHT22;41709;52.536;5.688;2022-12-18T01:18:12;-2.20;83.80
55785;DHT22;41709;52.536;5.688;2022-12-18T01:20:38;-2.20;83.80
55785;DHT22;41709;52.536;5.688;2022-12-18T01:23:03;-2.30;83.80
55785;DHT22;41709;52.536;5.688;2022-12-18T01:25:29;-2.30;83.70
55785;DHT22;41709;52.536;5.688;2022-12-18T01:27:55;-2.30;83.80
55785;DHT22;41709;52.536;5.688;2022-12-18T01:30:20;-2.40;83.70
55785;DHT22;41709;52.536;5.688;2022-12-18T01:32:46;-2.40;83.70
55785;DHT22;41709;52.536;5.688;2022-12-18T01:35:15;-2.40;83.70
55785;DHT22;41709;52.536;5.688;2022-12-18T01:37:41;-2.40;83.50
55785;DHT22;41709;52.536;5.688;2022-12-18T01:40:07;-2.50;83.60
55785;DHT22;41709;52.536;5.688;2022-12-18T01:42:33;-2.50;83.50
55785;DHT22;41709;52.536;5.688;2022-12-18T01:48:00;-2.60;83.50
55785;DHT22;41709;52.536;5.688;2022-12-18T01:50:39;-2.60;83.50
55785;DHT22;41709;52.536;5.688;2022-12-18T01:53:11;-2.60;83.50
55785;DHT22;41709;52.536;5.688;2022-12-18T01:55:55;-2.60;83.50
55785;DHT22;41709;52.536;5.688;2022-12-18T01:58:32;-2.70;83.30
55785;DHT22;41709;52.536;5.688;2022-12-18T02:01:01;-2.60;83.40
55785;DHT22;41709;52.536;5.688;2022-12-18T02:03:27;-2.70;83.40
55785;DHT22;41709;52.536;5.688;2022-12-18T02:06:23;-2.70;83.40
55785;DHT22;41709;52.536;5.688;2022-12-18T02:08:57;-2.70;83.30
55785;DHT22;41709;52.536;5.688;2022-12-18T02:11:55;-2.70;83.40
55785;DHT22;41709;52.536;5.688;2022-12-18T02:17:36;-2.80;83.30
55785;DHT22;41709;52.536;5.688;2022-12-18T02:20:13;-2.80;83.20
55785;DHT22;41709;52.536;5.688;2022-12-18T02:28:12;-2.90;83.30
55785;DHT22;41709;52.536;5.688;2022-12-18T02:30:39;-2.90;83.40
55785;DHT22;41709;52.536;5.688;2022-12-18T02:33:08;-2.90;83.40
55785;DHT22;41709;52.536;5.688;2022-12-18T02:35:36;-3.00;83.30
55785;DHT22;41709;52.536;5.688;2022-12-18T02:38:03;-3.00;83.30
55785;DHT22;41709;52.536;5.688;2022-12-18T02:40:30;-3.00;83.30
55785;DHT22;41709;52.536;5.688;2022-12-18T02:43:14;-3.00;83.30
55785;DHT22;41709;52.536;5.688;2022-12-18T02:45:53;-3.00;83.20
55785;DHT22;41709;52.536;5.688;2022-12-18T02:48:23;-3.00;83.00
55785;DHT22;41709;52.536;5.688;2022-12-18T02:51:17;-3.10;83.00
55785;DHT22;41709;52.536;5.688;2022-12-18T02:54:01;-3.10;82.90
55785;DHT22;41709;52.536;5.688;2022-12-18T02:56:59;-3.10;83.00
55785;DHT22;41709;52.536;5.688;2022-12-18T02:59:33;-3.10;83.10
55785;DHT22;41709;52.536;5.688;2022-12-18T03:02:12;-3.20;83.40
55785;DHT22;41709;52.536;5.688;2022-12-18T03:04:59;-3.20;83.10
55785;DHT22;41709;52.536;5.688;2022-12-18T03:07:38;-3.20;83.10
55785;DHT22;41709;52.536;5.688;2022-12-18T03:10:06;-3.20;83.00
55785;DHT22;41709;52.536;5.688;2022-12-18T03:12:36;-3.20;83.40
55785;DHT22;41709;52.536;5.688;2022-12-18T03:17:32;-3.30;83.20
55785;DHT22;41709;52.536;5.688;2022-12-18T03:20:04;-3.30;83.20
55785;DHT22;41709;52.536;5.688;2022-12-18T03:22:33;-3.30;83.20
55785;DHT22;41709;52.536;5.688;2022-12-18T03:25:02;-3.30;83.20
55785;DHT22;41709;52.536;5.688;2022-12-18T03:27:29;-3.30;83.20
55785;DHT22;41709;52.536;5.688;2022-12-18T03:30:05;-3.30;83.20
55785;DHT22;41709;52.536;5.688;2022-12-18T03:35:05;-3.40;83.10
55785;DHT22;41709;52.536;5.688;2022-12-18T03:37:32;-3.40;83.10
55785;DHT22;41709;52.536;5.688;2022-12-18T03:39:58;-3.40;83.10
55785;DHT22;41709;52.536;5.688;2022-12-18T03:45:26;-3.50;83.00
55785;DHT22;41709;52.536;5.688;2022-12-18T03:48:23;-3.50;83.10
55785;DHT22;41709;52.536;5.688;2022-12-18T03:56:09;-3.50;83.30
55785;DHT22;41709;52.536;5.688;2022-12-18T03:58:37;-3.50;83.30
55785;DHT22;41709;52.536;5.688;2022-12-18T04:01:06;-3.50;83.40
55785;DHT22;41709;52.536;5.688;2022-12-18T04:03:36;-3.50;83.40
55785;DHT22;41709;52.536;5.688;2022-12-18T04:06:03;-3.60;83.30
55785;DHT22;41709;52.536;5.688;2022-12-18T04:08:33;-3.60;83.30
55785;DHT22;41709;52.536;5.688;2022-12-18T04:11:00;-2.30;83.90
55785;DHT22;41709;52.536;5.688;2022-12-18T04:13:34;-3.60;83.20
55785;DHT22;41709;52.536;5.688;2022-12-18T04:16:00;-3.60;83.10
55785;DHT22;41709;52.536;5.688;2022-12-18T04:18:26;-3.60;83.20
55785;DHT22;41709;52.536;5.688;2022-12-18T04:20:52;-3.60;83.20
55785;DHT22;41709;52.536;5.688;2022-12-18T04:23:18;-3.70;83.00
55785;DHT22;41709;52.536;5.688;2022-12-18T04:25:45;-3.70;83.10
55785;DHT22;41709;52.536;5.688;2022-12-18T04:28:10;-3.70;83.10
55785;DHT22;41709;52.536;5.688;2022-12-18T04:30:36;-3.70;83.10
55785;DHT22;41709;52.536;5.688;2022-12-18T04:33:02;-3.70;83.10
55785;DHT22;41709;52.536;5.688;2022-12-18T04:35:27;-3.70;83.10
55785;DHT22;41709;52.536;5.688;2022-12-18T04:37:53;-3.70;83.10
55785;DHT22;41709;52.536;5.688;2022-12-18T04:40:18;-3.70;83.10
55785;DHT22;41709;52.536;5.688;2022-12-18T04:42:44;-3.70;83.20
55785;DHT22;41709;52.536;5.688;2022-12-18T04:45:10;-3.70;83.20
55785;DHT22;41709;52.536;5.688;2022-12-18T04:47:36;-3.80;83.20
55785;DHT22;41709;52.536;5.688;2022-12-18T04:50:01;-3.80;83.10
55785;DHT22;41709;52.536;5.688;2022-12-18T04:52:27;-3.80;83.20
55785;DHT22;41709;52.536;5.688;2022-12-18T04:54:55;-3.80;83.20
55785;DHT22;41709;52.536;5.688;2022-12-18T04:57:21;-3.80;83.20
55785;DHT22;41709;52.536;5.688;2022-12-18T04:59:47;-3.80;83.20
55785;DHT22;41709;52.536;5.688;2022-12-18T05:02:12;-3.80;83.00
55785;DHT22;41709;52.536;5.688;2022-12-18T05:04:38;-3.80;83.10
55785;DHT22;41709;52.536;5.688;2022-12-18T05:07:04;-3.80;83.10
55785;DHT22;41709;52.536;5.688;2022-12-18T05:09:30;-3.80;83.10
55785;DHT22;41709;52.536;5.688;2022-12-18T05:11:56;-3.80;83.10
55785;DHT22;41709;52.536;5.688;2022-12-18T05:14:22;-3.90;83.00
55785;DHT22;41709;52.536;5.688;2022-12-18T05:16:48;-3.80;83.00
55785;DHT22;41709;52.536;5.688;2022-12-18T05:19:14;-3.90;83.00
55785;DHT22;41709;52.536;5.688;2022-12-18T05:21:40;-3.90;82.90
55785;DHT22;41709;52.536;5.688;2022-12-18T05:24:05;-3.90;82.80
55785;DHT22;41709;52.536;5.688;2022-12-18T05:26:31;-3.90;82.80
55785;DHT22;41709;52.536;5.688;2022-12-18T05:28:57;-3.90;82.70
55785;DHT22;41709;52.536;5.688;2022-12-18T05:31:25;-3.90;82.60
55785;DHT22;41709;52.536;5.688;2022-12-18T05:33:50;-4.00;82.40
55785;DHT22;41709;52.536;5.688;2022-12-18T05:36:16;-4.00;82.40
55785;DHT22;41709;52.536;5.688;2022-12-18T05:38:42;-4.00;82.40
55785;DHT22;41709;52.536;5.688;2022-12-18T05:41:08;-4.00;82.30
55785;DHT22;41709;52.536;5.688;2022-12-18T05:43:36;-4.00;83.00
55785;DHT22;41709;52.536;5.688;2022-12-18T05:46:12;-4.00;82.20
55785;DHT22;41709;52.536;5.688;2022-12-18T05:48:38;-4.10;82.00
55785;DHT22;41709;52.536;5.688;2022-12-18T05:51:13;-4.10;82.10
55785;DHT22;41709;52.536;5.688;2022-12-18T05:53:40;-4.10;81.90
55785;DHT22;41709;52.536;5.688;2022-12-18T05:56:12;-4.10;81.90
55785;DHT22;41709;52.536;5.688;2022-12-18T05:58:38;-4.10;81.80
55785;DHT22;41709;52.536;5.688;2022-12-18T06:01:16;-4.10;81.80
55785;DHT22;41709;52.536;5.688;2022-12-18T06:03:43;-4.10;81.70
55785;DHT22;41709;52.536;5.688;2022-12-18T06:06:20;-4.20;81.80
55785;DHT22;41709;52.536;5.688;2022-12-18T06:08:46;-4.20;81.70
55785;DHT22;41709;52.536;5.688;2022-12-18T06:11:12;-4.20;81.90
55785;DHT22;41709;52.536;5.688;2022-12-18T06:13:38;-4.20;82.00
55785;DHT22;41709;52.536;5.688;2022-12-18T06:16:04;-4.20;81.90
55785;DHT22;41709;52.536;5.688;2022-12-18T06:18:30;-4.30;82.00
55785;DHT22;41709;52.536;5.688;2022-12-18T06:20:56;-4.30;82.00
55785;DHT22;41709;52.536;5.688;2022-12-18T06:23:22;-4.30;82.10
55785;DHT22;41709;52.536;5.688;2022-12-18T06:25:48;-4.30;82.10
55785;DHT22;41709;52.536;5.688;2022-12-18T06:28:14;-4.30;82.20
55785;DHT22;41709;52.536;5.688;2022-12-18T06:30:43;-4.30;82.30
55785;DHT22;41709;52.536;5.688;2022-12-18T06:33:12;-4.30;82.20
55785;DHT22;41709;52.536;5.688;2022-12-18T06:35:40;-4.30;82.30
55785;DHT22;41709;52.536;5.688;2022-12-18T06:38:06;-4.40;82.40
55785;DHT22;41709;52.536;5.688;2022-12-18T06:40:34;-4.30;82.40
55785;DHT22;41709;52.536;5.688;2022-12-18T06:42:59;-4.30;82.40
55785;DHT22;41709;52.536;5.688;2022-12-18T06:45:25;-4.30;82.40
55785;DHT22;41709;52.536;5.688;2022-12-18T06:47:51;-4.30;82.40
55785;DHT22;41709;52.536;5.688;2022-12-18T06:50:16;-4.30;82.40
55785;DHT22;41709;52.536;5.688;2022-12-18T06:52:45;-4.30;82.40
55785;DHT22;41709;52.536;5.688;2022-12-18T06:55:11;-4.30;82.40
55785;DHT22;41709;52.536;5.688;2022-12-18T06:57:37;-4.30;82.40
55785;DHT22;41709;52.536;5.688;2022-12-18T07:00:06;-4.30;82.50
55785;DHT22;41709;52.536;5.688;2022-12-18T07:02:32;-4.30;82.60
55785;DHT22;41709;52.536;5.688;2022-12-18T07:04:58;-4.30;82.70
55785;DHT22;41709;52.536;5.688;2022-12-18T07:07:24;-4.30;82.80
55785;DHT22;41709;52.536;5.688;2022-12-18T07:09:50;-4.30;82.80
55785;DHT22;41709;52.536;5.688;2022-12-18T07:12:16;-4.30;82.80
55785;DHT22;41709;52.536;5.688;2022-12-18T07:14:42;-4.30;82.90
55785;DHT22;41709;52.536;5.688;2022-12-18T07:17:07;-4.30;82.90
55785;DHT22;41709;52.536;5.688;2022-12-18T07:19:36;-4.30;83.10
55785;DHT22;41709;52.536;5.688;2022-12-18T07:22:01;-4.30;83.10
55785;DHT22;41709;52.536;5.688;2022-12-18T07:24:27;-4.30;83.20
55785;DHT22;41709;52.536;5.688;2022-12-18T07:26:53;-4.20;83.40
55785;DHT22;41709;52.536;5.688;2022-12-18T07:29:19;-4.30;83.40
55785;DHT22;41709;52.536;5.688;2022-12-18T07:31:45;-4.20;83.60
55785;DHT22;41709;52.536;5.688;2022-12-18T07:34:14;-4.20;83.60
55785;DHT22;41709;52.536;5.688;2022-12-18T07:36:41;-4.20;83.60
55785;DHT22;41709;52.536;5.688;2022-12-18T07:39:07;-4.20;83.70
55785;DHT22;41709;52.536;5.688;2022-12-18T07:41:33;-4.20;83.70
55785;DHT22;41709;52.536;5.688;2022-12-18T07:44:00;-4.10;83.70
55785;DHT22;41709;52.536;5.688;2022-12-18T07:46:25;-4.10;83.70
55785;DHT22;41709;52.536;5.688;2022-12-18T07:48:52;-4.10;83.70
55785;DHT22;41709;52.536;5.688;2022-12-18T07:51:18;-4.10;83.60
55785;DHT22;41709;52.536;5.688;2022-12-18T07:53:44;-4.10;83.70
55785;DHT22;41709;52.536;5.688;2022-12-18T07:56:11;-4.10;83.70
55785;DHT22;41709;52.536;5.688;2022-12-18T07:58:37;-4.10;83.70
55785;DHT22;41709;52.536;5.688;2022-12-18T08:01:08;-4.10;83.80
55785;DHT22;41709;52.536;5.688;2022-12-18T08:03:34;-4.10;83.70
55785;DHT22;41709;52.536;5.688;2022-12-18T08:06:01;-4.00;83.80
55785;DHT22;41709;52.536;5.688;2022-12-18T08:08:27;-4.00;83.70
55785;DHT22;41709;52.536;5.688;2022-12-18T08:10:53;-4.00;83.80
55785;DHT22;41709;52.536;5.688;2022-12-18T08:13:19;-4.00;83.80
55785;DHT22;41709;52.536;5.688;2022-12-18T08:15:44;-4.00;83.90
55785;DHT22;41709;52.536;5.688;2022-12-18T08:18:10;-4.00;83.90
55785;DHT22;41709;52.536;5.688;2022-12-18T08:20:35;-3.90;84.00
55785;DHT22;41709;52.536;5.688;2022-12-18T08:23:01;-3.90;83.90
55785;DHT22;41709;52.536;5.688;2022-12-18T08:25:26;-3.90;83.90
55785;DHT22;41709;52.536;5.688;2022-12-18T08:27:52;-3.80;84.00
55785;DHT22;41709;52.536;5.688;2022-12-18T08:30:18;-3.80;83.90
55785;DHT22;41709;52.536;5.688;2022-12-18T08:32:43;-3.80;84.00
55785;DHT22;41709;52.536;5.688;2022-12-18T08:35:09;-3.80;84.00
55785;DHT22;41709;52.536;5.688;2022-12-18T08:37:37;-3.80;84.20
55785;DHT22;41709;52.536;5.688;2022-12-18T08:40:02;-3.70;84.90
55785;DHT22;41709;52.536;5.688;2022-12-18T08:42:28;-3.70;84.20
55785;DHT22;41709;52.536;5.688;2022-12-18T08:45:12;-3.70;84.10
55785;DHT22;41709;52.536;5.688;2022-12-18T08:47:37;-3.60;84.10
55785;DHT22;41709;52.536;5.688;2022-12-18T08:50:03;-3.60;84.80
55785;DHT22;41709;52.536;5.688;2022-12-18T08:52:31;-3.50;84.00
55785;DHT22;41709;52.536;5.688;2022-12-18T08:54:57;-3.50;83.90
55785;DHT22;41709;52.536;5.688;2022-12-18T08:57:22;-3.50;84.00
55785;DHT22;41709;52.536;5.688;2022-12-18T08:59:48;-3.40;84.00
55785;DHT22;41709;52.536;5.688;2022-12-18T09:02:13;-3.40;84.10
55785;DHT22;41709;52.536;5.688;2022-12-18T09:04:39;-3.30;84.20
55785;DHT22;41709;52.536;5.688;2022-12-18T09:07:05;-3.30;84.20
55785;DHT22;41709;52.536;5.688;2022-12-18T09:09:30;-3.20;84.30
55785;DHT22;41709;52.536;5.688;2022-12-18T09:11:56;-3.20;84.30
55785;DHT22;41709;52.536;5.688;2022-12-18T09:14:21;-3.10;84.40
55785;DHT22;41709;52.536;5.688;2022-12-18T09:16:47;-3.10;84.40
55785;DHT22;41709;52.536;5.688;2022-12-18T09:19:12;-3.00;84.40
55785;DHT22;41709;52.536;5.688;2022-12-18T09:21:38;-2.90;84.40
55785;DHT22;41709;52.536;5.688;2022-12-18T09:24:05;-2.90;84.20
55785;DHT22;41709;52.536;5.688;2022-12-18T09:26:30;-2.80;84.10
55785;DHT22;41709;52.536;5.688;2022-12-18T09:28:56;-2.80;83.90
55785;DHT22;41709;52.536;5.688;2022-12-18T09:31:22;-2.70;83.70
55785;DHT22;41709;52.536;5.688;2022-12-18T09:33:49;-2.70;83.50
55785;DHT22;41709;52.536;5.688;2022-12-18T09:36:16;-2.60;83.20
55785;DHT22;41709;52.536;5.688;2022-12-18T09:38:42;-2.60;83.10
55785;DHT22;41709;52.536;5.688;2022-12-18T09:44:14;-2.50;82.50
55785;DHT22;41709;52.536;5.688;2022-12-18T09:47:08;-2.40;82.40
55785;DHT22;41709;52.536;5.688;2022-12-18T09:49:35;-2.40;82.20
55785;DHT22;41709;52.536;5.688;2022-12-18T09:52:11;-2.40;81.90
55785;DHT22;41709;52.536;5.688;2022-12-18T09:54:39;-2.30;81.60
55785;DHT22;41709;52.536;5.688;2022-12-18T09:57:05;-2.30;81.60
55785;DHT22;41709;52.536;5.688;2022-12-18T09:59:35;-2.30;81.60
55785;DHT22;41709;52.536;5.688;2022-12-18T10:02:13;-2.20;81.40
55785;DHT22;41709;52.536;5.688;2022-12-18T10:04:39;-2.20;81.30
55785;DHT22;41709;52.536;5.688;2022-12-18T10:07:26;-2.20;81.20
55785;DHT22;41709;52.536;5.688;2022-12-18T10:21:19;-2.00;80.80
55785;DHT22;41709;52.536;5.688;2022-12-18T10:26:41;-1.90;80.60
55785;DHT22;41709;52.536;5.688;2022-12-18T10:29:12;-1.80;80.40
55785;DHT22;41709;52.536;5.688;2022-12-18T10:31:38;-1.80;80.10
55785;DHT22;41709;52.536;5.688;2022-12-18T10:34:04;-1.80;80.00
55785;DHT22;41709;52.536;5.688;2022-12-18T10:36:30;-1.70;79.90
55785;DHT22;41709;52.536;5.688;2022-12-18T10:39:20;-1.70;79.80
55785;DHT22;41709;52.536;5.688;2022-12-18T10:41:47;-1.70;79.60
55785;DHT22;41709;52.536;5.688;2022-12-18T10:44:23;-1.60;79.60
55785;DHT22;41709;52.536;5.688;2022-12-18T10:46:53;-1.60;79.50
55785;DHT22;41709;52.536;5.688;2022-12-18T10:51:50;-1.60;79.10
55785;DHT22;41709;52.536;5.688;2022-12-18T10:54:22;-1.50;79.10
55785;DHT22;41709;52.536;5.688;2022-12-18T10:56:48;-1.50;79.00
55785;DHT22;41709;52.536;5.688;2022-12-18T10:59:15;-1.40;79.10
55785;DHT22;41709;52.536;5.688;2022-12-18T11:04:24;-1.40;78.70
55785;DHT22;41709;52.536;5.688;2022-12-18T11:07:02;-1.40;78.60
55785;DHT22;41709;52.536;5.688;2022-12-18T11:09:35;-1.30;78.70
55785;DHT22;41709;52.536;5.688;2022-12-18T11:12:24;-1.30;78.60
55785;DHT22;41709;52.536;5.688;2022-12-18T11:14:53;-1.20;78.60
55785;DHT22;41709;52.536;5.688;2022-12-18T11:17:32;-1.20;78.50
55785;DHT22;41709;52.536;5.688;2022-12-18T11:20:04;-1.20;78.50
55785;DHT22;41709;52.536;5.688;2022-12-18T11:22:34;-1.10;78.50
55785;DHT22;41709;52.536;5.688;2022-12-18T11:27:46;-1.10;78.20
55785;DHT22;41709;52.536;5.688;2022-12-18T11:30:22;-1.00;78.30
55785;DHT22;41709;52.536;5.688;2022-12-18T11:35:37;-1.00;78.20
55785;DHT22;41709;52.536;5.688;2022-12-18T11:38:18;-1.00;78.10
55785;DHT22;41709;52.536;5.688;2022-12-18T11:40:49;-0.90;78.10
55785;DHT22;41709;52.536;5.688;2022-12-18T11:46:26;-0.90;77.80
55785;DHT22;41709;52.536;5.688;2022-12-18T11:49:01;-0.90;77.90
55785;DHT22;41709;52.536;5.688;2022-12-18T11:51:35;-0.80;77.90
55785;DHT22;41709;52.536;5.688;2022-12-18T11:54:13;-0.80;77.90
55785;DHT22;41709;52.536;5.688;2022-12-18T11:57:08;-0.80;77.80
55785;DHT22;41709;52.536;5.688;2022-12-18T12:16:41;-0.60;77.60
55785;DHT22;41709;52.536;5.688;2022-12-18T12:19:27;-0.60;77.50
55785;DHT22;41709;52.536;5.688;2022-12-18T12:38:25;-0.30;77.40
55785;DHT22;41709;52.536;5.688;2022-12-18T12:40:56;-0.30;77.40
55785;DHT22;41709;52.536;5.688;2022-12-18T12:43:41;-0.30;76.90
55785;DHT22;41709;52.536;5.688;2022-12-18T12:46:13;-0.30;76.90
55785;DHT22;41709;52.536;5.688;2022-12-18T12:48:56;-0.20;76.80
55785;DHT22;41709;52.536;5.688;2022-12-18T12:51:28;-0.20;76.80
55785;DHT22;41709;52.536;5.688;2022-12-18T12:53:57;-0.20;76.70
55785;DHT22;41709;52.536;5.688;2022-12-18T12:56:26;-0.20;76.60
55785;DHT22;41709;52.536;5.688;2022-12-18T13:01:52;-0.10;77.30
55785;DHT22;41709;52.536;5.688;2022-12-18T13:04:36;-0.10;76.40
55785;DHT22;41709;52.536;5.688;2022-12-18T13:07:23;0.00;76.90
55785;DHT22;41709;52.536;5.688;2022-12-18T13:12:50;0.00;76.10
55785;DHT22;41709;52.536;5.688;2022-12-18T13:15:45;0.00;76.30
55785;DHT22;41709;52.536;5.688;2022-12-18T13:18:16;0.00;75.90
55785;DHT22;41709;52.536;5.688;2022-12-18T13:21:14;0.00;76.10
55785;DHT22;41709;52.536;5.688;2022-12-18T13:23:44;0.10;76.10
55785;DHT22;41709;52.536;5.688;2022-12-18T13:28:54;0.10;75.80
55785;DHT22;41709;52.536;5.688;2022-12-18T13:36:48;0.10;75.80
55785;DHT22;41709;52.536;5.688;2022-12-18T13:41:40;0.20;75.80
55785;DHT22;41709;52.536;5.688;2022-12-18T13:46:51;0.20;75.60
55785;DHT22;41709;52.536;5.688;2022-12-18T13:51:55;0.30;75.50
55785;DHT22;41709;52.536;5.688;2022-12-18T13:54:37;0.30;75.30
55785;DHT22;41709;52.536;5.688;2022-12-18T13:57:05;0.30;75.20
55785;DHT22;41709;52.536;5.688;2022-12-18T13:59:38;0.30;75.70
55785;DHT22;41709;52.536;5.688;2022-12-18T14:02:16;0.30;75.50
55785;DHT22;41709;52.536;5.688;2022-12-18T14:04:45;0.30;75.00
55785;DHT22;41709;52.536;5.688;2022-12-18T14:07:19;0.30;74.90
55785;DHT22;41709;52.536;5.688;2022-12-18T14:09:49;0.30;74.90
55785;DHT22;41709;52.536;5.688;2022-12-18T14:12:21;0.30;75.00
55785;DHT22;41709;52.536;5.688;2022-12-18T14:15:50;0.30;74.80
55785;DHT22;41709;52.536;5.688;2022-12-18T14:18:02;0.30;74.70
55785;DHT22;41709;52.536;5.688;2022-12-18T14:20:31;0.30;74.60
55785;DHT22;41709;52.536;5.688;2022-12-18T14:22:57;0.30;74.70
55785;DHT22;41709;52.536;5.688;2022-12-18T14:25:30;0.30;74.60
55785;DHT22;41709;52.536;5.688;2022-12-18T14:28:04;0.30;74.50
55785;DHT22;41709;52.536;5.688;2022-12-18T14:30:42;0.30;74.60
55785;DHT22;41709;52.536;5.688;2022-12-18T14:33:12;0.30;74.20
55785;DHT22;41709;52.536;5.688;2022-12-18T14:35:41;0.30;74.30
55785;DHT22;41709;52.536;5.688;2022-12-18T14:38:24;0.40;74.20
55785;DHT22;41709;52.536;5.688;2022-12-18T14:43:25;0.20;74.00
55785;DHT22;41709;52.536;5.688;2022-12-18T14:45:52;0.20;74.00
55785;DHT22;41709;52.536;5.688;2022-12-18T14:51:19;0.20;74.00
55785;DHT22;41709;52.536;5.688;2022-12-18T14:53:53;0.20;74.10
55785;DHT22;41709;52.536;5.688;2022-12-18T14:56:31;0.20;74.00
55785;DHT22;41709;52.536;5.688;2022-12-18T14:59:04;0.20;73.80
55785;DHT22;41709;52.536;5.688;2022-12-18T15:01:34;0.20;73.80
55785;DHT22;41709;52.536;5.688;2022-12-18T15:04:01;0.20;73.90
55785;DHT22;41709;52.536;5.688;2022-12-18T15:06:31;0.20;73.80
55785;DHT22;41709;52.536;5.688;2022-12-18T15:08:59;0.20;73.90
55785;DHT22;41709;52.536;5.688;2022-12-18T15:11:33;0.20;74.50
55785;DHT22;41709;52.536;5.688;2022-12-18T15:14:41;0.30;73.70
55785;DHT22;41709;52.536;5.688;2022-12-18T15:17:18;0.20;73.60
55785;DHT22;41709;52.536;5.688;2022-12-18T15:19:45;0.30;73.70
55785;DHT22;41709;52.536;5.688;2022-12-18T15:24:50;0.30;73.50
55785;DHT22;41709;52.536;5.688;2022-12-18T15:27:25;0.30;73.60
55785;DHT22;41709;52.536;5.688;2022-12-18T15:32:38;0.30;73.40
55785;DHT22;41709;52.536;5.688;2022-12-18T15:37:36;0.30;73.40
55785;DHT22;41709;52.536;5.688;2022-12-18T15:40:05;0.30;73.50
55785;DHT22;41709;52.536;5.688;2022-12-18T15:42:31;0.40;73.50
55785;DHT22;41709;52.536;5.688;2022-12-18T15:45:15;0.40;73.30
55785;DHT22;41709;52.536;5.688;2022-12-18T15:47:41;0.40;73.30
55785;DHT22;41709;52.536;5.688;2022-12-18T15:50:08;0.40;73.10
55785;DHT22;41709;52.536;5.688;2022-12-18T15:52:41;0.40;73.10
55785;DHT22;41709;52.536;5.688;2022-12-18T15:55:16;0.40;72.90
55785;DHT22;41709;52.536;5.688;2022-12-18T15:58:01;0.40;72.80
55785;DHT22;41709;52.536;5.688;2022-12-18T16:00:26;0.40;72.70
55785;DHT22;41709;52.536;5.688;2022-12-18T16:02:52;0.40;72.70
55785;DHT22;41709;52.536;5.688;2022-12-18T16:05:19;0.40;72.80
55785;DHT22;41709;52.536;5.688;2022-12-18T16:07:45;0.40;72.80
55785;DHT22;41709;52.536;5.688;2022-12-18T16:10:11;0.40;72.90
55785;DHT22;41709;52.536;5.688;2022-12-18T16:12:37;0.50;72.90
55785;DHT22;41709;52.536;5.688;2022-12-18T16:15:05;0.40;72.80
55785;DHT22;41709;52.536;5.688;2022-12-18T16:17:30;0.40;72.80
55785;DHT22;41709;52.536;5.688;2022-12-18T16:19:56;0.40;72.60
55785;DHT22;41709;52.536;5.688;2022-12-18T16:22:24;0.50;72.80
55785;DHT22;41709;52.536;5.688;2022-12-18T16:24:51;0.50;73.00
55785;DHT22;41709;52.536;5.688;2022-12-18T16:27:17;0.50;72.90
55785;DHT22;41709;52.536;5.688;2022-12-18T16:29:43;0.50;73.00
55785;DHT22;41709;52.536;5.688;2022-12-18T16:32:14;0.40;72.90
55785;DHT22;41709;52.536;5.688;2022-12-18T16:34:40;0.50;72.90
55785;DHT22;41709;52.536;5.688;2022-12-18T16:37:08;0.50;73.00
55785;DHT22;41709;52.536;5.688;2022-12-18T16:39:35;0.50;73.00
55785;DHT22;41709;52.536;5.688;2022-12-18T16:42:18;0.50;73.10
55785;DHT22;41709;52.536;5.688;2022-12-18T16:44:45;0.50;73.10
55785;DHT22;41709;52.536;5.688;2022-12-18T16:47:11;0.50;73.20
55785;DHT22;41709;52.536;5.688;2022-12-18T16:49:37;0.50;73.30
55785;DHT22;41709;52.536;5.688;2022-12-18T16:52:06;0.50;73.40
55785;DHT22;41709;52.536;5.688;2022-12-18T16:54:32;0.50;73.40
55785;DHT22;41709;52.536;5.688;2022-12-18T16:56:59;0.50;73.50
55785;DHT22;41709;52.536;5.688;2022-12-18T16:59:25;0.50;74.20
55785;DHT22;41709;52.536;5.688;2022-12-18T17:01:51;0.60;73.50
55785;DHT22;41709;52.536;5.688;2022-12-18T17:04:17;0.50;73.30
55785;DHT22;41709;52.536;5.688;2022-12-18T17:06:44;0.50;73.40
55785;DHT22;41709;52.536;5.688;2022-12-18T17:09:12;0.50;73.50
55785;DHT22;41709;52.536;5.688;2022-12-18T17:11:39;0.50;73.60
55785;DHT22;41709;52.536;5.688;2022-12-18T17:14:09;0.50;73.50
55785;DHT22;41709;52.536;5.688;2022-12-18T17:16:36;0.50;73.60
55785;DHT22;41709;52.536;5.688;2022-12-18T17:19:02;0.50;73.60
55785;DHT22;41709;52.536;5.688;2022-12-18T17:21:27;0.50;73.50
55785;DHT22;41709;52.536;5.688;2022-12-18T17:23:53;0.50;73.40
55785;DHT22;41709;52.536;5.688;2022-12-18T17:26:19;0.60;73.30
55785;DHT22;41709;52.536;5.688;2022-12-18T17:28:44;0.60;73.30
55785;DHT22;41709;52.536;5.688;2022-12-18T17:31:18;0.60;73.50
55785;DHT22;41709;52.536;5.688;2022-12-18T17:33:43;0.60;73.40
55785;DHT22;41709;52.536;5.688;2022-12-18T17:36:10;0.60;73.30
55785;DHT22;41709;52.536;5.688;2022-12-18T17:38:36;0.60;73.30
55785;DHT22;41709;52.536;5.688;2022-12-18T17:41:06;0.60;73.30
55785;DHT22;41709;52.536;5.688;2022-12-18T17:43:32;0.60;74.00
55785;DHT22;41709;52.536;5.688;2022-12-18T17:46:04;0.60;73.30
55785;DHT22;41709;52.536;5.688;2022-12-18T17:48:31;0.60;73.30
55785;DHT22;41709;52.536;5.688;2022-12-18T17:51:04;0.70;73.10
55785;DHT22;41709;52.536;5.688;2022-12-18T17:53:30;0.70;73.00
55785;DHT22;41709;52.536;5.688;2022-12-18T17:55:58;0.70;73.00